Terminal Aerodrome Forecast
Issued by NWS Sioux Falls, SD

Home | Current Version | Previous Version | Graphics & Text | Print | Product List | Glossary On
Versions: 1 2 3 4 5 6 7 8 9 10 11 12 13 14
000
FTUS43 KFSD 231722
TAFFSD
TAF
KFSD 231722Z 2318/2418 32024G37KT P6SM SCT040 BKN060
     FM232300 33020G28KT P6SM SCT060
     FM240400 33019G25KT P6SM SCT090
     FM241500 34023G35KT P6SM SCT090=

USA.gov is the U.S. government's official web portal to all federal, state and local government web resources and services.